Time;durP1;ratioP1;P1;durP2;ratioP2;P2;SDS_P1;SDS_P2;PMS_P1;PMS_P2;Temp;Humidity;BMP_temperature;BMP_pressure;BME280_temperature;BME280_humidity;BME280_pressure;Samples;Min_cycle;Max_cycle;Signal;HPM_P1;HPM_P2
2022/07/16 00:04:43;;;;;;;2.67;1.20;;;13.10;99.90;;;;;;7362620;32;20115;-61
2022/07/16 00:08:45;;;;;;;4.32;1.20;;;13.10;99.90;;;;;;7361340;32;20110;-62
2022/07/16 00:12:47;;;;;;;3.75;1.48;;;13.10;99.90;;;;;;7361802;32;20138;-60
2022/07/16 00:16:48;;;;;;;4.32;1.17;;;13.10;99.90;;;;;;7361672;32;20596;-61
2022/07/16 00:20:50;;;;;;;2.00;1.40;;;13.10;99.90;;;;;;7360886;32;20175;-60
2022/07/16 00:24:52;;;;;;;2.20;1.12;;;13.20;99.90;;;;;;7361516;32;20262;-61
2022/07/16 00:28:54;;;;;;;3.47;1.50;;;13.20;99.90;;;;;;7361192;32;20129;-60
2022/07/16 00:32:55;;;;;;;6.25;1.55;;;13.30;99.90;;;;;;7360999;32;20548;-61
2022/07/16 00:36:57;;;;;;;5.20;1.50;;;13.30;99.90;;;;;;7361618;32;20111;-61
2022/07/16 00:41:18;;;;;;;2.62;1.40;;;13.30;99.90;;;;;;7360895;32;20221;-61
2022/07/16 00:45:20;;;;;;;7.78;1.50;;;13.30;99.90;;;;;;7361519;32;20718;-60
2022/07/16 00:49:22;;;;;;;5.70;1.60;;;13.20;99.90;;;;;;7360093;32;20665;-61
2022/07/16 00:53:24;;;;;;;4.32;1.37;;;13.10;99.90;;;;;;7359355;32;20611;-60
2022/07/16 00:57:26;;;;;;;3.58;1.40;;;13.00;99.90;;;;;;7349142;32;20133;-61
2022/07/16 01:01:28;;;;;;;4.80;1.55;;;13.00;99.90;;;;;;7333204;32;20449;-60
2022/07/16 01:05:29;;;;;;;3.35;1.52;;;12.90;99.90;;;;;;7337576;32;20190;-60
2022/07/16 01:09:33;;;;;;;4.62;1.37;;;12.80;99.90;;;;;;7359598;32;20167;-61
2022/07/16 01:13:35;;;;;;;2.53;1.40;;;12.70;99.90;;;;;;7360075;32;20146;-61
2022/07/16 01:17:37;;;;;;;3.78;1.60;;;12.60;99.90;;;;;;7359461;32;20138;-61
2022/07/16 01:21:40;;;;;;;3.95;1.50;;;12.50;99.90;;;;;;7360153;32;20112;-61
2022/07/16 01:25:42;;;;;;;3.20;1.50;;;12.50;99.90;;;;;;7359710;32;20198;-61
2022/07/16 01:29:43;;;;;;;3.67;1.70;;;12.50;99.90;;;;;;7359656;32;20103;-60
2022/07/16 01:34:24;;;;;;;4.87;1.58;;;12.70;99.90;;;;;;7360241;32;20111;-60
2022/07/16 01:38:10;;;;;;;3.28;1.77;;;12.70;99.90;;;;;;7358879;32;20123;-61
2022/07/16 01:42:12;;;;;;;4.12;1.58;;;12.70;99.90;;;;;;7359384;32;20230;-61
2022/07/16 01:46:14;;;;;;;3.05;1.60;;;12.60;99.90;;;;;;7359479;32;20122;-61
2022/07/16 01:50:15;;;;;;;6.87;1.73;;;12.70;99.90;;;;;;7358606;32;20190;-61
2022/07/16 01:54:17;;;;;;;3.03;1.45;;;12.80;99.90;;;;;;7358556;32;20180;-61
2022/07/16 01:58:19;;;;;;;2.33;1.40;;;12.80;99.90;;;;;;7357197;32;20135;-60
2022/07/16 02:02:21;;;;;;;6.00;1.60;;;12.80;99.90;;;;;;7358938;32;20213;-61
2022/07/16 02:06:22;;;;;;;4.30;1.70;;;12.70;99.90;;;;;;7359501;32;20214;-60
2022/07/16 02:10:24;;;;;;;5.55;2.05;;;12.80;99.90;;;;;;7357538;32;20131;-62
2022/07/16 02:14:26;;;;;;;2.72;1.42;;;12.80;99.90;;;;;;7358517;32;20179;-60
2022/07/16 02:18:28;;;;;;;3.10;1.50;;;12.80;99.90;;;;;;7357684;32;20179;-61
2022/07/16 02:22:31;;;;;;;5.50;1.83;;;12.90;99.90;;;;;;7358494;32;20167;-60
2022/07/16 02:26:33;;;;;;;3.37;1.85;;;12.80;99.90;;;;;;7358844;32;20210;-61
2022/07/16 02:30:37;;;;;;;5.15;1.75;;;12.80;99.90;;;;;;7356966;32;20148;-61
2022/07/16 02:34:39;;;;;;;5.57;1.42;;;12.80;99.90;;;;;;7359141;32;20130;-60
2022/07/16 02:38:41;;;;;;;3.45;1.85;;;12.80;99.90;;;;;;7357369;32;20118;-62
2022/07/16 02:42:42;;;;;;;2.62;1.40;;;12.70;99.90;;;;;;7327639;32;20269;-61
2022/07/16 02:46:44;;;;;;;4.30;1.92;;;12.80;99.90;;;;;;7346229;32;20555;-61
2022/07/16 02:50:46;;;;;;;2.80;1.70;;;12.80;99.90;;;;;;7357122;32;20168;-61
2022/07/16 02:54:48;;;;;;;4.55;1.52;;;12.80;99.90;;;;;;7358124;32;20194;-62
2022/07/16 02:58:50;;;;;;;6.37;1.85;;;12.80;99.90;;;;;;7337570;32;20111;-61
2022/07/16 03:02:51;;;;;;;4.68;1.83;;;12.90;99.90;;;;;;7358031;32;20186;-61
2022/07/16 03:06:53;;;;;;;4.68;1.67;;;12.90;99.90;;;;;;7358237;32;20510;-61
2022/07/16 03:10:55;;;;;;;3.87;1.60;;;13.00;99.90;;;;;;7357307;32;20277;-63
2022/07/16 03:14:58;;;;;;;6.35;1.70;;;13.00;99.90;;;;;;7357304;32;20654;-62
2022/07/16 03:18:59;;;;;;;2.70;1.80;;;13.10;99.90;;;;;;7356984;32;20155;-61
2022/07/16 03:23:01;;;;;;;5.45;1.85;;;13.10;99.90;;;;;;7361374;32;20120;-61
2022/07/16 03:27:03;;;;;;;4.55;1.92;;;13.20;99.90;;;;;;7362821;32;20571;-61
2022/07/16 03:31:05;;;;;;;3.87;1.90;;;13.20;99.90;;;;;;7361789;32;20182;-62
2022/07/16 03:35:08;;;;;;;3.70;1.65;;;13.20;99.90;;;;;;7363150;32;20118;-61
2022/07/16 03:39:10;;;;;;;8.48;2.22;;;13.30;99.90;;;;;;7361639;32;20115;-62
2022/07/16 03:43:12;;;;;;;3.30;1.85;;;13.40;99.90;;;;;;7362176;32;20719;-62
2022/07/16 03:47:14;;;;;;;4.15;2.22;;;13.50;99.90;;;;;;7362624;32;20152;-61
2022/07/16 03:51:16;;;;;;;3.53;1.62;;;13.50;99.90;;;;;;7362053;32;20178;-62
2022/07/16 03:55:19;;;;;;;2.80;1.60;;;13.50;99.90;;;;;;7347532;32;20099;-62
2022/07/16 03:59:20;;;;;;;3.45;1.87;;;13.50;99.90;;;;;;7360413;32;20099;-61
2022/07/16 04:03:23;;;;;;;3.33;1.98;;;13.50;99.90;;;;;;7362063;32;20130;-61
2022/07/16 04:07:25;;;;;;;4.22;2.03;;;13.60;99.90;;;;;;7362170;32;20585;-61
2022/07/16 04:11:27;;;;;;;5.65;2.45;;;13.70;99.90;;;;;;7360793;32;20121;-61
2022/07/16 04:15:29;;;;;;;3.85;2.03;;;13.70;99.90;;;;;;7361213;32;20200;-61
2022/07/16 04:19:31;;;;;;;2.97;1.75;;;13.70;99.90;;;;;;7360770;32;20490;-61
2022/07/16 04:23:33;;;;;;;3.83;1.92;;;13.80;99.90;;;;;;7361612;32;20239;-61
2022/07/16 04:27:35;;;;;;;6.37;2.37;;;13.90;99.90;;;;;;7360016;32;20107;-61
2022/07/16 04:31:36;;;;;;;4.50;2.30;;;14.00;99.90;;;;;;7361224;32;20176;-60
2022/07/16 04:35:38;;;;;;;4.30;2.12;;;14.10;99.90;;;;;;7360831;32;20129;-61
2022/07/16 04:39:40;;;;;;;4.12;2.37;;;14.20;99.90;;;;;;7361032;32;20225;-61
2022/07/16 04:43:42;;;;;;;4.47;2.72;;;14.30;99.90;;;;;;7360608;32;20122;-61
2022/07/16 04:47:43;;;;;;;3.40;2.05;;;14.40;99.90;;;;;;7360249;32;20151;-61
2022/07/16 04:51:45;;;;;;;7.05;2.10;;;14.50;99.90;;;;;;7360847;32;20115;-61
2022/07/16 04:55:47;;;;;;;9.40;2.28;;;14.60;99.90;;;;;;7359297;32;20108;-61
2022/07/16 04:59:49;;;;;;;7.82;2.15;;;14.70;99.90;;;;;;7357976;32;20306;-61
2022/07/16 05:03:50;;;;;;;7.70;2.30;;;14.90;99.90;;;;;;7349415;32;20769;-61
2022/07/16 05:07:52;;;;;;;5.15;2.15;;;14.90;99.90;;;;;;7358042;32;20168;-60
2022/07/16 05:11:54;;;;;;;7.07;2.45;;;15.10;99.90;;;;;;7359769;32;20203;-61
2022/07/16 05:15:57;;;;;;;7.68;2.05;;;15.20;99.90;;;;;;7360166;32;20193;-61
2022/07/16 05:19:58;;;;;;;6.18;2.42;;;15.30;99.90;;;;;;7359363;32;20214;-61
2022/07/16 05:24:00;;;;;;;4.12;2.10;;;15.50;99.90;;;;;;7360059;32;20148;-61
2022/07/16 05:28:02;;;;;;;5.05;2.17;;;15.70;99.90;;;;;;7359119;32;20199;-61
2022/07/16 05:32:04;;;;;;;5.28;1.80;;;15.80;99.90;;;;;;7359322;32;20167;-60
2022/07/16 05:36:06;;;;;;;5.47;2.28;;;15.90;99.90;;;;;;7359470;32;20275;-61
2022/07/16 05:40:10;;;;;;;5.57;1.90;;;15.90;99.90;;;;;;7359018;32;20436;-60
2022/07/16 05:44:11;;;;;;;8.88;2.53;;;16.00;99.90;;;;;;7359506;32;20131;-61
2022/07/16 05:48:13;;;;;;;7.93;2.25;;;15.90;99.90;;;;;;7358433;32;20197;-61
2022/07/16 05:52:15;;;;;;;5.57;2.55;;;16.00;99.90;;;;;;7359183;32;20130;-61
2022/07/16 05:56:17;;;;;;;8.88;2.50;;;16.10;99.90;;;;;;7355720;32;20183;-61
2022/07/16 06:00:19;;;;;;;4.82;2.30;;;16.40;99.90;;;;;;7332908;32;20127;-60
2022/07/16 06:04:21;;;;;;;3.50;2.12;;;16.50;99.90;;;;;;7343959;32;20122;-61
2022/07/16 06:08:22;;;;;;;5.28;2.42;;;16.60;99.90;;;;;;7358174;32;20303;-60
2022/07/16 06:12:24;;;;;;;4.75;2.20;;;16.90;99.90;;;;;;7359059;32;20171;-60
2022/07/16 06:16:27;;;;;;;5.78;3.40;;;17.00;99.90;;;;;;7358982;32;20263;-61
2022/07/16 06:20:29;;;;;;;7.57;3.20;;;17.10;99.90;;;;;;7357960;32;20148;-60
2022/07/16 06:24:30;;;;;;;4.72;2.53;;;17.50;99.90;;;;;;7359116;32;20119;-61
2022/07/16 06:28:32;;;;;;;5.05;2.92;;;18.30;99.90;;;;;;7358177;32;20099;-61
2022/07/16 06:32:34;;;;;;;7.62;3.80;;;19.10;99.90;;;;;;7357772;32;20107;-65
2022/07/16 06:36:36;;;;;;;6.28;3.28;;;19.00;99.90;;;;;;7357864;32;20464;-65
2022/07/16 06:40:43;;;;;;;9.82;3.53;;;19.00;99.90;;;;;;7358008;32;20591;-65
2022/07/16 06:44:44;;;;;;;8.07;3.67;;;18.90;99.90;;;;;;7358701;32;20103;-65
2022/07/16 06:48:46;;;;;;;6.78;3.80;;;19.10;99.90;;;;;;7357001;32;20190;-65
2022/07/16 06:52:48;;;;;;;7.65;4.00;;;19.10;99.90;;;;;;7358170;32;20103;-65
2022/07/16 06:56:50;;;;;;;8.50;3.55;;;19.80;99.90;;;;;;7339692;32;20122;-65
2022/07/16 07:00:51;;;;;;;6.22;2.97;;;20.50;99.90;;;;;;7356779;32;20128;-65
2022/07/16 07:04:53;;;;;;;7.40;4.18;;;21.70;99.90;;;;;;7357617;32;20194;-65
2022/07/16 07:08:55;;;;;;;7.03;3.10;;;21.40;99.90;;;;;;7356594;32;20207;-65
2022/07/16 07:12:57;;;;;;;6.53;3.33;;;20.90;99.90;;;;;;7357987;32;20108;-65
2022/07/16 07:16:58;;;;;;;7.70;3.42;;;20.50;99.90;;;;;;7356298;32;20111;-65
2022/07/16 07:21:01;;;;;;;7.15;3.35;;;20.40;99.90;;;;;;7357176;32;20095;-65
2022/07/16 07:25:04;;;;;;;6.05;3.12;;;20.40;99.90;;;;;;7357400;32;20096;-66
2022/07/16 07:29:06;;;;;;;5.18;2.85;;;20.80;99.90;;;;;;7356719;32;20124;-65
2022/07/16 07:33:08;;;;;;;5.05;2.95;;;20.70;99.90;;;;;;7357273;32;20175;-65
2022/07/16 07:37:10;;;;;;;4.12;2.53;;;20.60;99.90;;;;;;7357277;32;20161;-65
2022/07/16 07:41:11;;;;;;;3.55;2.08;;;20.40;99.90;;;;;;7356920;32;20121;-66
2022/07/16 07:45:13;;;;;;;5.20;1.95;;;20.80;99.90;;;;;;7357422;32;20549;-66
2022/07/16 07:49:15;;;;;;;3.95;1.40;;;20.70;99.90;;;;;;7357039;32;20129;-64
2022/07/16 07:53:17;;;;;;;3.30;1.30;;;20.40;99.90;;;;;;7357334;32;20122;-65
2022/07/16 07:57:18;;;;;;;2.90;1.10;;;20.00;99.90;;;;;;7356916;32;20997;-64
2022/07/16 08:01:20;;;;;;;1.52;0.80;;;19.80;99.90;;;;;;7357131;32;20122;-64
2022/07/16 08:05:27;;;;;;;3.33;0.82;;;19.70;99.90;;;;;;7357663;32;20162;-64
2022/07/16 08:09:29;;;;;;;2.37;0.80;;;20.00;99.90;;;;;;7360082;32;20461;-65
2022/07/16 08:13:30;;;;;;;1.65;0.50;;;20.00;99.90;;;;;;7361476;32;20183;-64
2022/07/16 08:17:32;;;;;;;1.42;0.40;;;20.10;99.90;;;;;;7361599;32;20297;-64
2022/07/16 08:21:35;;;;;;;2.40;0.50;;;20.20;99.90;;;;;;7361709;32;20121;-65
2022/07/16 08:25:46;;;;;;;0.80;0.50;;;20.40;99.90;;;;;;7361183;32;20747;-64
2022/07/16 08:29:48;;;;;;;3.03;0.70;;;20.80;99.90;;;;;;7361049;32;20164;-65
2022/07/16 08:33:50;;;;;;;2.20;0.88;;;21.40;99.90;;;;;;7361726;32;20114;-64
2022/07/16 08:37:51;;;;;;;1.70;0.70;;;21.60;99.90;;;;;;7360522;32;20784;-65
2022/07/16 08:41:54;;;;;;;2.92;1.05;;;21.80;99.90;;;;;;7360905;32;20273;-65
2022/07/16 08:45:57;;;;;;;2.47;0.55;;;21.90;99.90;;;;;;7360922;32;20111;-64
2022/07/16 08:50:00;;;;;;;2.67;0.73;;;22.00;99.90;;;;;;7360935;32;20171;-65
2022/07/16 08:54:34;;;;;;;3.40;0.77;;;22.00;99.90;;;;;;7354365;32;20119;-65
2022/07/16 08:58:36;;;;;;;4.03;1.17;;;21.60;99.90;;;;;;7342177;32;20194;-65
2022/07/16 09:02:40;;;;;;;2.22;1.00;;;21.50;99.90;;;;;;7361060;32;20147;-65
2022/07/16 09:06:41;;;;;;;2.53;1.00;;;21.80;99.90;;;;;;7360211;32;20129;-65
2022/07/16 09:10:43;;;;;;;3.58;1.50;;;22.90;99.90;;;;;;7359965;32;20337;-65
2022/07/16 09:14:45;;;;;;;6.22;1.30;;;23.40;99.90;;;;;;7360435;32;20140;-65
2022/07/16 09:19:04;;;;;;;3.25;0.93;;;23.00;99.90;;;;;;7359356;32;20231;-66
2022/07/16 09:23:17;;;;;;;5.37;1.12;;;22.50;99.90;;;;;;7360677;32;20693;-65
2022/07/16 09:27:22;;;;;;;3.58;1.35;;;21.90;99.90;;;;;;7359981;32;20112;-65
2022/07/16 09:31:35;;;;;;;5.85;1.50;;;22.70;99.90;;;;;;7359020;32;20190;-66
2022/07/16 09:35:37;;;;;;;3.83;1.12;;;23.30;99.90;;;;;;7358264;32;20104;-66
2022/07/16 09:39:46;;;;;;;3.60;1.30;;;22.80;99.90;;;;;;7358671;32;20516;-65
2022/07/16 09:43:49;;;;;;;2.90;1.15;;;23.60;99.90;;;;;;7358712;32;20126;-65
2022/07/16 09:47:50;;;;;;;5.43;1.10;;;23.50;99.40;;;;;;7358293;32;20123;-66
2022/07/16 09:51:52;;;;;;;1.58;0.80;;;23.20;99.90;;;;;;7359470;32;20099;-66
2022/07/16 09:56:08;;;;;;;3.08;0.75;;;22.50;99.90;;;;;;7341643;32;20208;-66
2022/07/16 10:00:12;;;;;;;1.73;0.73;;;22.50;99.90;;;;;;7358987;32;20127;-65
2022/07/16 10:04:14;;;;;;;3.17;1.08;;;22.90;99.00;;;;;;7359243;32;20115;-65
2022/07/16 10:08:16;;;;;;;1.50;0.65;;;22.80;99.00;;;;;;7357795;32;20092;-65
2022/07/16 10:12:20;;;;;;;2.03;0.93;;;22.20;99.20;;;;;;7359620;32;20178;-66
2022/07/16 10:16:42;;;;;;;4.18;1.00;;;22.40;99.90;;;;;;7359315;32;20126;-66
2022/07/16 10:20:44;;;;;;;2.50;0.80;;;23.60;98.00;;;;;;7358595;32;20305;-65
2022/07/16 10:24:50;;;;;;;2.83;0.90;;;24.50;97.70;;;;;;7359071;32;20108;-66
2022/07/16 10:28:56;;;;;;;2.70;0.80;;;24.30;94.80;;;;;;7356909;32;20190;-65
2022/07/16 10:33:05;;;;;;;3.47;0.93;;;23.80;95.60;;;;;;7358949;32;20130;-66
2022/07/16 10:37:10;;;;;;;4.00;1.05;;;23.80;95.50;;;;;;7356905;32;20131;-66
2022/07/16 10:41:15;;;;;;;3.60;0.70;;;24.10;94.40;;;;;;7358193;32;20527;-65
2022/07/16 10:45:18;;;;;;;2.33;0.80;;;24.10;94.20;;;;;;7358304;32;20217;-66
2022/07/16 10:49:27;;;;;;;5.12;1.12;;;23.50;94.70;;;;;;7357817;32;20219;-66
2022/07/16 10:53:29;;;;;;;4.70;0.88;;;22.90;94.60;;;;;;7356205;32;20103;-65
2022/07/16 10:57:36;;;;;;;1.80;0.80;;;22.10;96.40;;;;;;7346720;32;20146;-65
2022/07/16 11:01:39;;;;;;;4.75;0.90;;;22.70;97.20;;;;;;7332134;32;20183;-66
2022/07/16 11:05:41;;;;;;;2.00;0.70;;;23.30;96.30;;;;;;7332726;32;20132;-66
2022/07/16 11:09:50;;;;;;;1.80;0.85;;;24.00;96.00;;;;;;7331720;32;20104;-65
2022/07/16 11:13:55;;;;;;;6.70;0.80;;;23.80;92.80;;;;;;7356541;32;20556;-66
2022/07/16 11:18:00;;;;;;;4.10;0.85;;;23.60;92.40;;;;;;7356832;32;20151;-65
2022/07/16 11:22:03;;;;;;;3.83;0.80;;;23.70;94.50;;;;;;7357907;32;20174;-66
2022/07/16 11:26:10;;;;;;;5.35;0.80;;;23.60;93.70;;;;;;7358235;32;20114;-66
2022/07/16 11:30:12;;;;;;;4.30;0.90;;;24.30;92.70;;;;;;7356725;32;20500;-65
2022/07/16 11:34:18;;;;;;;4.20;0.95;;;23.90;92.70;;;;;;7357575;32;20193;-65
2022/07/16 11:38:25;;;;;;;4.60;0.90;;;23.30;92.70;;;;;;7357066;32;20151;-65
2022/07/16 11:42:27;;;;;;;2.72;0.73;;;23.30;95.00;;;;;;7359410;32;20509;-65
2022/07/16 11:46:29;;;;;;;2.62;0.80;;;23.40;91.80;;;;;;7362094;32;20111;-65
2022/07/16 11:50:30;;;;;;;5.10;0.90;;;23.50;93.40;;;;;;7362118;32;20883;-67
2022/07/16 11:54:42;;;;;;;6.15;0.80;;;23.30;91.90;;;;;;7352279;32;20133;-67
2022/07/16 11:58:44;;;;;;;2.25;0.62;;;23.30;91.60;;;;;;7355105;32;20186;-64
2022/07/16 12:02:46;;;;;;;2.83;0.80;;;23.00;91.30;;;;;;7361682;32;20103;-65
2022/07/16 12:06:48;;;;;;;4.03;1.20;;;23.20;92.90;;;;;;7362113;32;20776;-64
2022/07/16 12:11:01;;;;;;;2.92;0.68;;;23.00;91.60;;;;;;7361455;32;20093;-65
2022/07/16 12:15:12;;;;;;;5.37;1.05;;;22.40;92.50;;;;;;7362252;32;20243;-66
2022/07/16 12:19:17;;;;;;;2.58;0.60;;;22.60;93.20;;;;;;7360425;32;20107;-65
2022/07/16 12:23:37;;;;;;;2.42;0.65;;;22.90;91.00;;;;;;7361439;32;20558;-65
2022/07/16 12:27:53;;;;;;;3.40;1.00;;;23.20;88.10;;;;;;7361462;32;20153;-66
2022/07/16 12:32:03;;;;;;;1.10;0.50;;;22.70;90.70;;;;;;7362119;32;20107;-66
2022/07/16 12:36:12;;;;;;;2.45;0.70;;;22.30;91.30;;;;;;7361492;32;20103;-66
2022/07/16 12:40:14;;;;;;;1.87;0.68;;;22.90;90.90;;;;;;7360368;32;20406;-66
2022/07/16 12:44:17;;;;;;;5.28;1.08;;;22.90;91.30;;;;;;7360942;32;20152;-66
2022/07/16 12:48:19;;;;;;;3.25;0.68;;;23.10;91.70;;;;;;7360809;32;20488;-66
2022/07/16 12:52:21;;;;;;;4.22;0.60;;;23.50;90.10;;;;;;7360512;32;20118;-66
2022/07/16 13:00:44;;;;;;;5.50;0.70;;;23.90;86.40;;;;;;7335040;32;20218;-66
2022/07/16 13:04:46;;;;;;;3.75;0.80;;;24.10;84.10;;;;;;7338051;32;20135;-66
2022/07/16 13:08:54;;;;;;;3.08;0.93;;;23.80;85.80;;;;;;7351869;32;20220;-66
2022/07/16 13:12:56;;;;;;;4.93;0.90;;;24.00;84.70;;;;;;7360459;32;20119;-66
2022/07/16 13:16:58;;;;;;;3.45;0.80;;;24.00;84.70;;;;;;7360171;32;20096;-66
2022/07/16 13:21:03;;;;;;;2.83;0.65;;;24.20;81.40;;;;;;7359800;32;20099;-65
2022/07/16 13:25:05;;;;;;;6.30;0.80;;;24.40;80.20;;;;;;7360537;32;20194;-66
2022/07/16 13:29:07;;;;;;;4.30;0.75;;;24.90;77.80;;;;;;7360026;32;20171;-65
2022/07/16 13:33:08;;;;;;;6.25;0.80;;;24.80;75.50;;;;;;7353978;32;20108;-65
2022/07/16 13:37:11;;;;;;;3.75;0.65;;;25.10;77.00;;;;;;7335808;32;20504;-65
2022/07/16 13:41:13;;;;;;;4.22;0.73;;;25.10;74.90;;;;;;7358736;32;20161;-65
2022/07/16 13:45:17;;;;;;;4.22;0.43;;;25.40;74.70;;;;;;7359526;32;20126;-66
2022/07/16 13:49:19;;;;;;;4.25;0.68;;;25.40;73.00;;;;;;7359132;32;20548;-65
2022/07/16 13:53:21;;;;;;;3.60;0.95;;;25.90;70.20;;;;;;7356696;32;20448;-67
2022/07/16 14:01:43;;;;;;;2.55;0.57;;;25.80;68.30;;;;;;7359128;32;20118;-65
2022/07/16 14:05:45;;;;;;;2.15;0.50;;;25.50;66.30;;;;;;7359601;32;20198;-65
2022/07/16 14:09:47;;;;;;;3.50;0.95;;;25.30;68.00;;;;;;7358574;32;20134;-66
2022/07/16 14:13:50;;;;;;;3.35;0.73;;;25.30;66.20;;;;;;7358760;32;20424;-66
2022/07/16 14:17:56;;;;;;;2.62;0.82;;;25.30;67.70;;;;;;7358487;32;20714;-65
2022/07/16 14:21:58;;;;;;;2.37;0.60;;;25.60;67.30;;;;;;7359274;32;20111;-65
2022/07/16 14:25:59;;;;;;;4.60;0.75;;;25.70;64.80;;;;;;7358613;32;20103;-66
2022/07/16 14:30:01;;;;;;;3.20;0.60;;;25.80;68.60;;;;;;7357781;32;20176;-66
2022/07/16 14:34:03;;;;;;;1.37;0.50;;;26.50;63.70;;;;;;7358834;32;20499;-66
2022/07/16 14:38:05;;;;;;;5.05;0.90;;;27.10;57.10;;;;;;7358653;32;20212;-66
2022/07/16 14:42:07;;;;;;;2.67;0.62;;;27.40;56.70;;;;;;7358819;32;20179;-66
2022/07/16 14:46:09;;;;;;;3.15;0.77;;;27.50;55.40;;;;;;7358634;32;20108;-66
2022/07/16 14:50:12;;;;;;;3.05;0.88;;;26.80;57.10;;;;;;7358128;32;20099;-65
2022/07/16 14:54:13;;;;;;;2.30;0.70;;;25.90;56.80;;;;;;7358887;32;20533;-66
2022/07/16 14:58:15;;;;;;;3.22;0.70;;;25.70;59.60;;;;;;7342291;32;20198;-65
2022/07/16 15:02:17;;;;;;;3.30;0.70;;;25.60;59.40;;;;;;7342771;32;20103;-65
2022/07/16 15:06:19;;;;;;;6.10;1.35;;;25.30;59.00;;;;;;7358710;32;20103;-66
2022/07/16 15:10:20;;;;;;;5.70;1.25;;;24.70;61.10;;;;;;7357654;32;20102;-66
2022/07/16 15:14:22;;;;;;;4.80;1.08;;;24.40;62.30;;;;;;7358090;32;20176;-64
2022/07/16 15:18:24;;;;;;;4.07;1.00;;;24.60;62.30;;;;;;7357152;32;20186;-65
2022/07/16 15:22:26;;;;;;;3.60;0.90;;;24.80;61.90;;;;;;7358055;32;20099;-65
2022/07/16 15:26:28;;;;;;;3.95;0.80;;;24.60;64.30;;;;;;7358366;32;20152;-65
2022/07/16 15:30:29;;;;;;;4.57;0.90;;;24.40;62.40;;;;;;7356806;32;20470;-65
2022/07/16 15:34:31;;;;;;;3.15;0.80;;;24.10;64.40;;;;;;7358213;32;20200;-65
2022/07/16 15:38:33;;;;;;;3.20;0.65;;;23.90;64.00;;;;;;7357068;32;20134;-66
2022/07/16 15:42:36;;;;;;;2.00;0.50;;;24.00;61.90;;;;;;7358109;32;20270;-65
2022/07/16 15:46:38;;;;;;;1.75;0.50;;;23.80;65.00;;;;;;7358194;32;20108;-65
2022/07/16 15:50:39;;;;;;;2.87;0.57;;;23.60;66.20;;;;;;7357103;32;20455;-65
2022/07/16 15:54:41;;;;;;;4.85;0.73;;;23.60;67.60;;;;;;7347035;32;20123;-66
2022/07/16 15:58:43;;;;;;;3.72;0.70;;;23.40;67.10;;;;;;7350330;32;20115;-65
2022/07/16 16:02:45;;;;;;;3.72;0.88;;;23.50;67.40;;;;;;7357867;32;20231;-65
2022/07/16 16:06:47;;;;;;;3.85;0.70;;;23.20;67.90;;;;;;7358246;32;20103;-65
2022/07/16 16:10:49;;;;;;;3.67;0.62;;;23.30;68.40;;;;;;7356501;32;20163;-65
2022/07/16 16:14:51;;;;;;;2.87;0.62;;;23.30;69.20;;;;;;7357734;32;20096;-65
2022/07/16 16:18:53;;;;;;;4.32;0.88;;;23.30;68.30;;;;;;7356744;32;20552;-65
2022/07/16 16:22:55;;;;;;;3.65;0.80;;;23.10;68.50;;;;;;7357626;32;20247;-65
2022/07/16 16:26:56;;;;;;;6.32;0.80;;;23.20;68.70;;;;;;7356963;32;20102;-66
2022/07/16 16:30:58;;;;;;;6.75;0.77;;;23.00;68.50;;;;;;7360456;32;20151;-67
2022/07/16 16:35:01;;;;;;;3.50;0.65;;;22.60;69.30;;;;;;7361202;32;20126;-65
2022/07/16 16:39:04;;;;;;;6.50;0.88;;;22.60;70.30;;;;;;7360419;32;20183;-65
2022/07/16 16:43:06;;;;;;;2.72;0.70;;;22.70;69.20;;;;;;7360705;32;20653;-66
2022/07/16 16:47:10;;;;;;;4.28;0.50;;;22.70;70.60;;;;;;7361199;32;20125;-65
2022/07/16 16:51:11;;;;;;;4.30;1.00;;;22.70;69.50;;;;;;7360193;32;20111;-65
2022/07/16 16:55:13;;;;;;;2.90;0.90;;;22.50;69.90;;;;;;7361386;32;20160;-65
2022/07/16 16:59:15;;;;;;;3.75;0.95;;;22.60;68.40;;;;;;7346437;32;20276;-65
2022/07/16 17:03:17;;;;;;;3.40;0.82;;;22.30;69.60;;;;;;7360355;32;20769;-65
2022/07/16 17:07:19;;;;;;;5.07;1.00;;;22.30;71.70;;;;;;7360356;32;20505;-66
2022/07/16 17:11:22;;;;;;;5.05;0.77;;;22.20;72.50;;;;;;7360312;32;20202;-65
2022/07/16 17:15:24;;;;;;;4.28;0.62;;;22.30;70.50;;;;;;7360532;32;20186;-65
2022/07/16 17:19:25;;;;;;;2.97;1.20;;;22.20;69.40;;;;;;7359687;32;20273;-65
2022/07/16 17:23:27;;;;;;;3.72;0.70;;;22.10;71.80;;;;;;7360695;32;20508;-70
2022/07/16 17:27:29;;;;;;;3.37;0.70;;;22.10;70.60;;;;;;7360588;32;20212;-66
2022/07/16 17:31:31;;;;;;;3.90;0.82;;;22.00;71.20;;;;;;7359884;32;20500;-66
2022/07/16 17:35:33;;;;;;;4.32;0.82;;;21.80;71.30;;;;;;7360110;32;20447;-66
2022/07/16 17:39:35;;;;;;;4.15;0.80;;;21.80;70.90;;;;;;7358926;32;20763;-67
2022/07/16 17:43:36;;;;;;;3.35;0.73;;;21.80;69.60;;;;;;7360224;32;20271;-66
2022/07/16 17:47:38;;;;;;;3.53;0.73;;;21.70;70.80;;;;;;7358926;32;20111;-66
2022/07/16 17:51:40;;;;;;;3.60;0.70;;;21.80;70.70;;;;;;7359387;32;20120;-66
2022/07/16 17:55:44;;;;;;;4.32;0.50;;;21.70;70.60;;;;;;7341091;32;20111;-65
2022/07/16 17:59:46;;;;;;;4.00;0.70;;;21.50;70.90;;;;;;7358636;32;20186;-66
2022/07/16 18:03:48;;;;;;;3.47;0.90;;;21.40;71.40;;;;;;7359717;32;20099;-66
2022/07/16 18:07:50;;;;;;;3.28;0.50;;;21.30;71.70;;;;;;7358247;32;20266;-66
2022/07/16 18:11:52;;;;;;;3.92;0.62;;;21.30;71.30;;;;;;7359549;32;20445;-70
2022/07/16 18:15:54;;;;;;;7.93;1.00;;;21.10;74.40;;;;;;7359364;32;20512;-66
2022/07/16 18:19:55;;;;;;;2.25;0.80;;;21.10;73.00;;;;;;7358212;32;20221;-70
2022/07/16 18:23:57;;;;;;;4.47;1.50;;;21.10;73.50;;;;;;7358484;32;20564;-66
2022/07/16 18:27:59;;;;;;;4.37;1.40;;;21.00;74.20;;;;;;7358246;32;20156;-65
2022/07/16 18:32:01;;;;;;;5.62;1.20;;;20.90;75.30;;;;;;7359178;32;20100;-66
2022/07/16 18:36:04;;;;;;;7.43;1.30;;;20.70;76.40;;;;;;7358396;32;20467;-66
2022/07/16 18:40:07;;;;;;;7.57;1.20;;;20.60;77.20;;;;;;7357184;32;20156;-66
2022/07/16 18:44:08;;;;;;;4.03;1.00;;;20.50;77.20;;;;;;7358350;32;20194;-65
2022/07/16 18:48:10;;;;;;;5.07;1.42;;;20.40;77.70;;;;;;7357989;32;20122;-66
2022/07/16 18:52:12;;;;;;;4.55;1.00;;;20.30;78.10;;;;;;7357198;32;20099;-66
2022/07/16 18:56:14;;;;;;;4.12;1.75;;;20.20;79.90;;;;;;7357737;32;20118;-67
2022/07/16 19:00:16;;;;;;;3.25;0.57;;;20.10;79.20;;;;;;7356241;32;20825;-67
2022/07/16 19:04:18;;;;;;;4.43;0.68;;;20.00;79.60;;;;;;7358552;32;20552;-66
2022/07/16 19:08:20;;;;;;;4.53;0.80;;;19.90;80.10;;;;;;7357516;32;20594;-68
2022/07/16 19:12:22;;;;;;;3.53;0.82;;;19.80;80.40;;;;;;7357651;32;20122;-65
2022/07/16 19:16:35;;;;;;;2.58;0.65;;;19.60;83.80;;;;;;7357960;32;20172;-65
2022/07/16 19:20:37;;;;;;;6.05;1.20;;;19.40;84.20;;;;;;7357294;32;20162;-72
2022/07/16 19:24:43;;;;;;;2.85;0.90;;;19.20;86.30;;;;;;7358724;32;20095;-67
2022/07/16 19:28:46;;;;;;;4.50;0.62;;;19.00;88.30;;;;;;7357171;32;20103;-65
2022/07/16 19:32:47;;;;;;;2.37;1.00;;;18.80;90.80;;;;;;7358085;32;20503;-66
2022/07/16 19:36:49;;;;;;;4.75;1.05;;;18.50;91.50;;;;;;7357918;32;20166;-65
2022/07/16 19:40:51;;;;;;;4.22;0.62;;;18.30;93.60;;;;;;7357158;32;20189;-67
2022/07/16 19:44:53;;;;;;;6.07;1.02;;;18.10;95.10;;;;;;7357422;32;20710;-66
2022/07/16 19:48:54;;;;;;;5.15;1.55;;;17.80;97.60;;;;;;7357255;32;20555;-66
2022/07/16 19:52:56;;;;;;;3.22;0.98;;;17.60;99.90;;;;;;7356502;32;20100;-62
2022/07/16 20:01:19;;;;;;;4.32;0.73;;;17.00;99.90;;;;;;7338238;32;20765;-61
2022/07/16 20:05:23;;;;;;;3.90;0.85;;;16.80;99.90;;;;;;7361091;32;20138;-62
2022/07/16 20:09:27;;;;;;;4.82;0.85;;;16.50;99.90;;;;;;7361806;32;20119;-61
2022/07/16 20:13:29;;;;;;;4.70;0.90;;;16.30;99.90;;;;;;7362139;32;20103;-61
2022/07/16 20:17:31;;;;;;;6.32;1.20;;;16.10;99.90;;;;;;7361793;32;20099;-61
2022/07/16 20:21:33;;;;;;;4.30;0.80;;;16.00;99.90;;;;;;7361821;32;20129;-61
2022/07/16 20:25:36;;;;;;;5.43;1.12;;;15.80;99.90;;;;;;7362291;32;20116;-62
2022/07/16 20:29:37;;;;;;;5.50;1.55;;;15.60;99.90;;;;;;7361021;32;20099;-61
2022/07/16 20:33:39;;;;;;;4.15;1.10;;;15.40;99.90;;;;;;7361787;32;20182;-61
2022/07/16 20:37:41;;;;;;;10.43;0.90;;;15.20;99.90;;;;;;7361379;32;20169;-61
2022/07/16 20:41:42;;;;;;;5.45;1.12;;;15.00;99.90;;;;;;7361907;32;20119;-61
2022/07/16 20:45:45;;;;;;;4.95;1.05;;;14.90;99.90;;;;;;7361717;32;20159;-60
2022/07/16 20:49:47;;;;;;;5.07;1.00;;;14.70;99.90;;;;;;7360860;32;20194;-61
2022/07/16 20:53:49;;;;;;;5.37;1.20;;;14.50;99.90;;;;;;7360633;32;20111;-61
2022/07/16 20:57:51;;;;;;;3.75;1.00;;;14.40;99.90;;;;;;7347169;32;20546;-63
2022/07/16 21:01:53;;;;;;;2.25;0.82;;;14.30;99.90;;;;;;7335360;32;20141;-62
2022/07/16 21:05:55;;;;;;;3.78;0.90;;;14.10;99.90;;;;;;7335873;32;20157;-61
2022/07/16 21:09:57;;;;;;;3.62;1.17;;;14.00;99.90;;;;;;7356238;32;20157;-61
2022/07/16 21:13:59;;;;;;;9.00;1.00;;;13.80;99.90;;;;;;7360438;32;20104;-61
2022/07/16 21:18:01;;;;;;;9.05;1.55;;;13.80;99.90;;;;;;7359790;32;20163;-61
2022/07/16 21:22:02;;;;;;;3.17;0.88;;;13.60;99.90;;;;;;7360789;32;20129;-61